x

Settlement Point, Gbi (spgf1) Weather Station

11:00pm - Mon 25th May 2015 All times are EDT. -4 hours from GMT.

  • Wind
    13mph, 14mph gusts
  • Air Temp 79°f
  • Sea Pressure 1023.1mb
  • Settlement Point, Gbi
  • Settlement Point, Gbi

More Historic Weather Station data

Upgrade to MSW Pro to gain access to the past 30 days of data for over 8000 Wavebouys and Weather Stations around the globe.

Join Pro

Comparision Forecast

View Surf forecast
   
Mon 05/25 11:00pm 13 14 mph 1023.1mb 79f
10:00pm 21 25 mph 1022.6mb 81f
9:00pm 10 14 mph 1022mb 77f
8:00pm 21 23 mph 1021.7mb 79f
7:00pm 16 18 mph 1021.4mb 81f
6:00pm 20 22 mph 1021.5mb 81f
5:00pm 21 22 mph 1021.7mb 81f
4:00pm 14 15 mph 1021.7mb 81f
3:00pm 14 16 mph 1022.1mb 84f
2:00pm 15 16 mph 1022.6mb 83f
1:00pm 15 20 mph 1022.9mb 83f
12:00pm 14 17 mph 1023.2mb 82f
11:00am 15 17 mph 1023.4mb 82f
10:00am 14 15 mph 1023.4mb 81f
9:00am 16 21 mph 1023.2mb 80f
8:00am 15 16 mph 1022.5mb 80f
7:00am 14 16 mph 1021.9mb 80f
6:00am 14 17 mph 1021.6mb 79f
5:00am 10 13 mph 1021.2mb 79f
4:00am 16 18 mph 1021mb 80f
3:00am 15 17 mph 1021.2mb 80f
2:00am 16 20 mph 1021.8mb 80f
1:00am 18 21 mph 1022.4mb 80f
12:00am 20 22 mph 1022.7mb 80f
Sun 05/24 11:00pm 21 23 mph 1022.5mb 81f
10:00pm 20 23 mph 1022.2mb 81f
9:00pm 23 25 mph 1021.7mb 81f
8:00pm 22 26 mph 1021.3mb 82f
7:00pm 22 24 mph 1021.1mb 82f
6:00pm 21 23 mph 1021mb 82f
5:00pm 21 23 mph 1021.1mb 82f
4:00pm 17 20 mph 1021.6mb 81f
3:00pm 18 20 mph 1022mb 82f
2:00pm 14 16 mph 1022.3mb 83f
1:00pm 15 25 mph 1022.7mb 81f
12:00pm 10 14 mph 1023.2mb 83f
11:00am 13 15 mph 1023.6mb 82f
10:00am 14 16 mph 1023.2mb 81f
9:00am 15 17 mph 1023.1mb 81f
8:00am 13 15 mph 1022.6mb 80f
7:00am 11 13 mph 1022.3mb 80f
6:00am 13 15 mph 1021.8mb 79f
5:00am 13 16 mph 1021.6mb 79f
4:00am 14 17 mph 1021.6mb 79f
3:00am 15 17 mph 1021.8mb 80f
2:00am 16 20 mph 1022.2mb 80f
1:00am 17 18 mph 1022.6mb 80f
12:00am 16 20 mph 1022.8mb 81f
Sat 05/23 11:00pm 16 20 mph 1023mb 82f
10:00pm 15 17 mph 1022.7mb 82f
9:00pm 15 18 mph 1022.4mb 82f
8:00pm 17 21 mph 1022.1mb 83f
7:00pm 16 18 mph 1022.1mb 83f
6:00pm 10 13 mph 1022.2mb 78f
5:00pm 6 7 mph 1022.4mb 81f
4:00pm 5 6 mph 1022.5mb 81f
3:00pm 7 8 mph 1023.2mb 80f
2:00pm 8 10 mph 1023.4mb 82f
1:00pm 7 8 mph 1023.6mb 82f
12:00pm 6 7 mph 1024mb 82f
11:00am 7 8 mph 1023.9mb 82f
10:00am 5 6 mph 1023.6mb 82f
9:00am 7 8 mph 1023.1mb 82f
8:00am 3 5 mph 1022.6mb 81f
7:00am 2
mph
1022.1mb 80f
6:00am  -  1 mph 1021.6mb 80f
5:00am 6
mph
1020.6mb 79f
4:00am 3 5 mph 1020.5mb 80f
3:00am 2
mph
1020.9mb 80f
2:00am 3 6 mph 1021.4mb 80f
1:00am 2
mph
1021.7mb 80f
12:00am 2 3 mph 1021.9mb 81f
Fri 05/22 11:00pm 2 3 mph 1021.7mb 81f
10:00pm 6 7 mph 1021.3mb 82f
9:00pm 7 8 mph 1020.7mb 82f
8:00pm 7
mph
1020.5mb 82f
7:00pm 8 9 mph 1020.2mb 82f
6:00pm 6 8 mph 1019.2mb 83f
5:00pm 6 7 mph 1019.4mb 83f
4:00pm 8
mph
1019.3mb 82f
3:00pm 8 9 mph 1019.6mb 82f
2:00pm 9 10 mph 1019.9mb 82f
1:00pm 9 10 mph 1019.9mb 82f
12:00pm 9 10 mph 1019.9mb 82f
11:00am 11 13 mph 1019.7mb 82f
10:00am 11 13 mph 1019.2mb 81f
9:00am 13 14 mph 1018.9mb 81f
8:00am 11 13 mph 1018.6mb 81f
7:00am 11 13 mph 1018.1mb 80f
6:00am 13 14 mph 1017.4mb 80f
5:00am 15 16 mph 1017.1mb 80f